Time;durP1;ratioP1;P1;durP2;ratioP2;P2;SDS_P1;SDS_P2;PMS_P1;PMS_P2;Temp;Humidity;BMP_temperature;BMP_pressure;BME280_temperature;BME280_humidity;BME280_pressure;Samples;Min_cycle;Max_cycle;Signal;HPM_P1;HPM_P2
2023/12/06 00:01:36;;;;;;;43.57;19.73;;;-1.70;99.90;;;;;;4191366;28;20462;-61
2023/12/06 00:03:37;;;;;;;47.80;19.97;;;-1.70;99.90;;;;;;4193819;28;20265;-61
2023/12/06 00:05:39;;;;;;;41.60;20.13;;;-1.70;99.90;;;;;;4192844;28;20734;-60
2023/12/06 00:07:41;;;;;;;39.73;19.03;;;-1.70;99.90;;;;;;4193270;28;20721;-63
2023/12/06 00:09:43;;;;;;;40.20;18.43;;;-1.80;99.90;;;;;;4192140;28;20262;-61
2023/12/06 00:11:44;;;;;;;39.67;20.30;;;-1.80;99.90;;;;;;4191658;28;20261;-62
2023/12/06 00:13:45;;;;;;;43.27;19.67;;;-1.80;99.90;;;;;;4190707;28;20277;-60
2023/12/06 00:15:46;;;;;;;38.97;19.50;;;-1.80;99.90;;;;;;4192579;28;20634;-62
2023/12/06 00:17:48;;;;;;;40.80;19.00;;;-1.80;99.90;;;;;;4192952;28;20742;-61
2023/12/06 00:19:49;;;;;;;36.83;18.63;;;-1.80;99.90;;;;;;4191901;28;20323;-62
2023/12/06 00:21:50;;;;;;;45.17;19.73;;;-1.80;99.90;;;;;;4192072;28;20305;-61
2023/12/06 00:23:51;;;;;;;43.27;19.07;;;-1.80;99.90;;;;;;4191381;28;20274;-60
2023/12/06 00:25:52;;;;;;;40.77;18.70;;;-1.90;99.90;;;;;;4193280;28;20285;-60
2023/12/06 00:27:55;;;;;;;41.07;19.93;;;-1.90;99.90;;;;;;4192456;28;20277;-61
2023/12/06 00:29:56;;;;;;;44.50;20.30;;;-1.90;99.90;;;;;;4192638;28;20673;-59
2023/12/06 00:31:57;;;;;;;48.50;21.27;;;-1.90;99.90;;;;;;4191483;28;20265;-60
2023/12/06 00:33:59;;;;;;;40.47;19.97;;;-1.90;99.90;;;;;;4192289;28;20339;-61
2023/12/06 00:36:00;;;;;;;40.77;18.33;;;-2.00;99.90;;;;;;4191477;28;20273;-60
2023/12/06 00:38:01;;;;;;;45.30;20.93;;;-2.00;99.90;;;;;;4193117;28;20273;-61
2023/12/06 00:40:03;;;;;;;48.43;21.30;;;-2.00;99.90;;;;;;4192376;28;20322;-61
2023/12/06 00:42:04;;;;;;;41.40;18.80;;;-2.00;99.90;;;;;;4191060;28;20305;-61
2023/12/06 00:44:05;;;;;;;45.27;20.40;;;-2.10;99.90;;;;;;4191689;28;21059;-62
2023/12/06 00:46:07;;;;;;;45.93;19.93;;;-2.10;99.90;;;;;;4191397;28;20601;-61
2023/12/06 00:48:08;;;;;;;40.07;18.87;;;-2.10;99.90;;;;;;4191934;28;20335;-61
2023/12/06 00:50:09;;;;;;;52.20;20.77;;;-2.10;99.90;;;;;;4192170;28;20261;-59
2023/12/06 00:52:10;;;;;;;42.67;20.03;;;-2.10;99.90;;;;;;4192919;28;20291;-61
2023/12/06 00:54:12;;;;;;;46.17;21.63;;;-2.10;99.90;;;;;;4192307;28;20254;-61
2023/12/06 00:56:13;;;;;;;47.40;22.23;;;-2.10;99.90;;;;;;4192574;28;20273;-61
2023/12/06 00:58:14;;;;;;;50.20;22.60;;;-2.10;99.90;;;;;;4191911;28;20274;-60
2023/12/06 01:00:16;;;;;;;50.03;21.90;;;-2.20;99.90;;;;;;4192529;28;20265;-57
2023/12/06 01:02:17;;;;;;;43.30;20.07;;;-2.20;99.90;;;;;;4191725;28;20297;-60
2023/12/06 01:04:18;;;;;;;45.20;21.47;;;-2.20;99.90;;;;;;4192130;28;20257;-60
2023/12/06 01:06:20;;;;;;;49.03;21.93;;;-2.10;99.90;;;;;;4191947;28;20319;-60
2023/12/06 01:08:21;;;;;;;44.77;20.53;;;-2.20;99.90;;;;;;4192124;28;20767;-61
2023/12/06 01:10:23;;;;;;;41.80;20.37;;;-2.10;99.90;;;;;;4191297;28;20269;-61
2023/12/06 01:12:24;;;;;;;40.07;18.80;;;-2.20;99.90;;;;;;4192184;28;20261;-62
2023/12/06 01:14:25;;;;;;;44.53;19.00;;;-2.30;99.90;;;;;;4190887;28;20772;-61
2023/12/06 01:16:26;;;;;;;40.63;20.10;;;-2.30;99.90;;;;;;4192398;28;20655;-61
2023/12/06 01:18:27;;;;;;;39.70;19.93;;;-2.40;99.90;;;;;;4192133;28;20269;-60
2023/12/06 01:20:29;;;;;;;46.07;20.43;;;-2.40;99.90;;;;;;4191436;28;20335;-60
2023/12/06 01:22:30;;;;;;;38.03;19.57;;;-2.40;99.90;;;;;;4192160;28;20305;-60
2023/12/06 01:24:31;;;;;;;45.70;21.10;;;-2.40;99.90;;;;;;4192104;28;20265;-60
2023/12/06 01:26:32;;;;;;;45.07;21.07;;;-2.50;99.90;;;;;;4192907;28;20281;-61
2023/12/06 01:28:34;;;;;;;41.50;20.30;;;-2.40;99.90;;;;;;4190791;28;20327;-61
2023/12/06 01:30:35;;;;;;;42.93;18.83;;;-2.40;99.90;;;;;;4192075;28;20285;-60
2023/12/06 01:32:37;;;;;;;43.37;20.17;;;-2.40;99.90;;;;;;4191859;28;20287;-60
2023/12/06 01:34:38;;;;;;;46.00;20.57;;;-2.40;99.90;;;;;;4191523;28;20331;-61
2023/12/06 01:36:39;;;;;;;42.43;19.53;;;-2.40;99.90;;;;;;4190655;28;21846;-61
2023/12/06 01:38:40;;;;;;;42.17;20.83;;;-2.30;99.90;;;;;;4192238;28;20756;-61
2023/12/06 01:40:43;;;;;;;41.57;20.37;;;-2.30;99.90;;;;;;4191184;28;20319;-60
2023/12/06 01:42:46;;;;;;;50.53;21.80;;;-2.30;99.90;;;;;;4191861;28;20375;-59
2023/12/06 01:44:47;;;;;;;46.83;21.77;;;-2.20;99.90;;;;;;4189983;28;20334;-60
2023/12/06 01:46:48;;;;;;;48.03;21.83;;;-2.30;99.90;;;;;;4191378;28;20311;-60
2023/12/06 01:48:50;;;;;;;42.77;20.40;;;-2.20;99.90;;;;;;4192362;28;20791;-61
2023/12/06 01:50:51;;;;;;;43.90;22.20;;;-2.20;99.90;;;;;;4191611;28;20281;-61
2023/12/06 01:52:57;;;;;;;44.17;20.53;;;-2.20;99.90;;;;;;4191453;28;21075;-59
2023/12/06 01:54:58;;;;;;;44.13;21.17;;;-2.30;99.90;;;;;;4190440;28;21204;-60
2023/12/06 01:57:00;;;;;;;49.00;21.30;;;-2.30;99.90;;;;;;4192388;28;20331;-61
2023/12/06 01:59:01;;;;;;;46.33;20.80;;;-2.30;99.90;;;;;;4191595;28;20285;-59
2023/12/06 02:01:04;;;;;;;48.23;22.00;;;-2.30;99.90;;;;;;4192699;28;20261;-61
2023/12/06 02:03:06;;;;;;;45.20;20.97;;;-2.30;99.90;;;;;;4191308;28;20387;-61
2023/12/06 02:05:08;;;;;;;45.10;20.97;;;-2.30;99.90;;;;;;4192243;28;20602;-61
2023/12/06 02:07:10;;;;;;;38.83;20.73;;;-2.40;99.90;;;;;;4191163;28;20742;-60
2023/12/06 02:09:12;;;;;;;44.50;23.33;;;-2.40;99.90;;;;;;4191535;28;20316;-60
2023/12/06 02:11:13;;;;;;;48.03;20.83;;;-2.50;99.90;;;;;;4191695;28;20303;-60
2023/12/06 02:13:17;;;;;;;47.10;21.50;;;-2.50;99.90;;;;;;4173142;28;20332;-59
2023/12/06 02:15:18;;;;;;;48.20;24.17;;;-2.50;99.90;;;;;;4191954;28;20672;-60
2023/12/06 02:17:19;;;;;;;51.97;24.57;;;-2.50;99.90;;;;;;4191618;28;20303;-61
2023/12/06 02:19:26;;;;;;;43.97;22.77;;;-2.50;99.90;;;;;;4191776;28;20265;-60
2023/12/06 02:21:28;;;;;;;41.00;20.57;;;-2.50;99.90;;;;;;4191881;28;20273;-60
2023/12/06 02:23:37;;;;;;;43.83;21.77;;;-2.50;99.90;;;;;;4195023;28;20310;-61
2023/12/06 02:25:38;;;;;;;49.97;22.67;;;-2.60;99.90;;;;;;4195134;28;20757;-60
2023/12/06 02:27:41;;;;;;;60.50;25.97;;;-2.50;99.90;;;;;;4195416;28;20269;-60
2023/12/06 02:29:42;;;;;;;48.13;24.40;;;-2.50;99.90;;;;;;4193335;28;21154;-58
2023/12/06 02:31:43;;;;;;;59.10;26.13;;;-2.60;99.90;;;;;;4195285;28;20346;-60
2023/12/06 02:33:46;;;;;;;61.87;27.60;;;-2.50;99.90;;;;;;4193997;28;20812;-60
2023/12/06 02:35:50;;;;;;;67.00;28.97;;;-2.50;99.90;;;;;;4176233;28;20286;-60
2023/12/06 02:37:55;;;;;;;50.70;23.47;;;-2.50;99.90;;;;;;4193225;28;20837;-58
2023/12/06 02:40:01;;;;;;;48.50;23.57;;;-2.50;99.90;;;;;;4194299;28;20841;-60
2023/12/06 02:42:02;;;;;;;44.00;22.20;;;-2.50;99.90;;;;;;4192805;28;20651;-60
2023/12/06 02:44:03;;;;;;;46.67;21.47;;;-2.60;99.90;;;;;;4175791;28;20286;-57
2023/12/06 02:46:06;;;;;;;44.90;20.97;;;-2.60;99.90;;;;;;4193475;28;20366;-58
2023/12/06 02:48:08;;;;;;;43.53;19.90;;;-2.60;99.90;;;;;;4193985;28;20345;-60
2023/12/06 02:50:09;;;;;;;45.23;20.53;;;-2.60;99.90;;;;;;4193092;28;20335;-60
2023/12/06 02:52:13;;;;;;;44.47;19.53;;;-2.60;99.90;;;;;;4193591;28;21056;-61
2023/12/06 02:54:14;;;;;;;48.10;20.80;;;-2.60;99.90;;;;;;4192757;28;20291;-60
2023/12/06 02:56:15;;;;;;;45.03;19.40;;;-2.60;99.90;;;;;;4194477;28;20719;-57
2023/12/06 02:58:16;;;;;;;36.70;19.63;;;-2.50;99.90;;;;;;4193878;28;20265;-58
2023/12/06 03:00:18;;;;;;;38.67;18.37;;;-2.60;99.90;;;;;;4193735;28;20725;-60
2023/12/06 03:02:19;;;;;;;37.00;17.57;;;-2.50;99.90;;;;;;4194475;28;20289;-59
2023/12/06 03:04:20;;;;;;;43.03;19.90;;;-2.50;99.90;;;;;;4193953;28;20265;-59
2023/12/06 03:06:21;;;;;;;46.23;19.80;;;-2.50;99.90;;;;;;4194649;28;20269;-60
2023/12/06 03:08:23;;;;;;;38.77;19.77;;;-2.50;99.90;;;;;;4193016;28;20735;-60
2023/12/06 03:10:24;;;;;;;41.63;19.20;;;-2.50;99.90;;;;;;4193526;28;20432;-61
2023/12/06 03:12:25;;;;;;;40.40;20.40;;;-2.50;99.90;;;;;;4192729;28;20270;-59
2023/12/06 03:14:26;;;;;;;40.83;19.97;;;-2.50;99.90;;;;;;4193883;28;20633;-61
2023/12/06 03:16:27;;;;;;;41.60;20.83;;;-2.50;99.90;;;;;;4193433;28;20749;-57
2023/12/06 03:18:29;;;;;;;44.97;19.70;;;-2.50;99.90;;;;;;4194424;28;20262;-60
2023/12/06 03:20:30;;;;;;;42.87;19.80;;;-2.50;99.90;;;;;;4192225;28;20335;-61
2023/12/06 03:22:31;;;;;;;44.87;20.83;;;-2.50;99.90;;;;;;4193156;28;20312;-60
2023/12/06 03:24:32;;;;;;;44.10;20.47;;;-2.50;99.90;;;;;;4193635;28;20336;-60
2023/12/06 03:26:34;;;;;;;38.50;20.13;;;-2.50;99.90;;;;;;4193954;28;20676;-58
2023/12/06 03:28:35;;;;;;;39.70;19.47;;;-2.50;99.90;;;;;;4192787;28;20772;-60
2023/12/06 03:30:36;;;;;;;39.63;18.77;;;-2.60;99.90;;;;;;4193384;28;20307;-58
2023/12/06 03:32:37;;;;;;;39.37;18.27;;;-2.60;99.90;;;;;;4193248;28;20609;-58
2023/12/06 03:34:38;;;;;;;41.77;18.77;;;-2.60;99.90;;;;;;4192823;28;20265;-61
2023/12/06 03:36:40;;;;;;;38.30;17.03;;;-2.60;99.90;;;;;;4194181;28;20261;-61
2023/12/06 03:38:41;;;;;;;38.53;17.57;;;-2.70;99.90;;;;;;4191948;28;20343;-60
2023/12/06 03:40:42;;;;;;;34.17;15.87;;;-2.70;99.90;;;;;;4192875;28;20334;-60
2023/12/06 03:42:43;;;;;;;35.20;17.40;;;-2.80;99.90;;;;;;4192191;28;20302;-60
2023/12/06 03:44:44;;;;;;;33.30;16.00;;;-2.90;99.90;;;;;;4193398;28;20265;-60
2023/12/06 03:46:45;;;;;;;36.80;15.80;;;-2.90;99.90;;;;;;4192936;28;20261;-61
2023/12/06 03:48:47;;;;;;;36.47;16.23;;;-2.90;99.90;;;;;;4193902;28;20266;-61
2023/12/06 03:50:48;;;;;;;38.40;17.17;;;-3.00;99.90;;;;;;4193194;28;20603;-61
2023/12/06 03:52:49;;;;;;;34.83;17.07;;;-3.00;99.90;;;;;;4193367;28;20992;-61
2023/12/06 03:54:50;;;;;;;32.07;16.47;;;-3.10;99.90;;;;;;4191555;28;20319;-60
2023/12/06 03:56:51;;;;;;;34.27;17.77;;;-3.10;99.90;;;;;;4192750;28;20261;-62
2023/12/06 03:58:54;;;;;;;34.63;17.30;;;-3.10;99.90;;;;;;4193603;28;20270;-59
2023/12/06 04:00:55;;;;;;;37.20;17.87;;;-3.10;99.90;;;;;;4193001;28;20591;-60
2023/12/06 04:02:57;;;;;;;36.20;17.90;;;-3.10;99.90;;;;;;4193214;28;20293;-60
2023/12/06 04:04:58;;;;;;;39.60;18.37;;;-3.10;99.90;;;;;;4192997;28;20360;-61
2023/12/06 04:06:59;;;;;;;38.40;18.27;;;-3.00;99.90;;;;;;4192971;28;20281;-61
2023/12/06 04:09:00;;;;;;;40.00;19.10;;;-3.00;99.90;;;;;;4191651;28;20257;-58
2023/12/06 04:11:02;;;;;;;40.50;20.47;;;-3.00;99.90;;;;;;4193562;28;20249;-61
2023/12/06 04:13:04;;;;;;;38.93;19.70;;;-3.00;99.90;;;;;;4191511;28;20387;-60
2023/12/06 04:15:06;;;;;;;39.80;18.60;;;-3.00;99.90;;;;;;4193605;28;20262;-61
2023/12/06 04:17:07;;;;;;;38.43;19.03;;;-2.90;99.90;;;;;;4192052;28;20737;-61
2023/12/06 04:19:09;;;;;;;35.07;17.80;;;-2.90;99.90;;;;;;4193015;28;20330;-60
2023/12/06 04:21:10;;;;;;;33.93;18.00;;;-2.90;99.90;;;;;;4192220;28;20265;-60
2023/12/06 04:23:11;;;;;;;41.53;20.87;;;-2.90;99.90;;;;;;4192251;28;20704;-60
2023/12/06 04:25:14;;;;;;;51.63;21.10;;;-3.00;99.90;;;;;;4192084;28;20277;-60
2023/12/06 04:27:15;;;;;;;43.73;20.03;;;-3.00;99.90;;;;;;4193029;28;20269;-61
2023/12/06 04:29:16;;;;;;;44.73;20.10;;;-3.10;99.90;;;;;;4192422;28;20265;-60
2023/12/06 04:31:17;;;;;;;42.00;19.80;;;-3.10;99.90;;;;;;4191522;28;20285;-61
2023/12/06 04:33:19;;;;;;;41.03;19.80;;;-3.10;99.90;;;;;;4193126;28;20261;-60
2023/12/06 04:35:20;;;;;;;42.43;21.53;;;-3.10;99.90;;;;;;4192423;28;20274;-60
2023/12/06 04:37:23;;;;;;;44.80;20.20;;;-3.10;99.90;;;;;;4192286;28;20278;-60
2023/12/06 04:39:24;;;;;;;37.50;18.53;;;-3.10;99.90;;;;;;4191577;28;20748;-61
2023/12/06 04:41:26;;;;;;;41.40;19.80;;;-3.10;99.90;;;;;;4192764;28;20802;-61
2023/12/06 04:43:27;;;;;;;35.10;18.83;;;-3.00;99.90;;;;;;4191306;28;20294;-61
2023/12/06 04:45:28;;;;;;;37.60;18.33;;;-3.10;99.90;;;;;;4192782;28;20327;-58
2023/12/06 04:47:29;;;;;;;39.27;18.40;;;-3.10;99.90;;;;;;4191188;28;20661;-60
2023/12/06 04:49:30;;;;;;;36.57;18.07;;;-3.00;99.90;;;;;;4192490;28;20266;-57
2023/12/06 04:51:31;;;;;;;43.20;19.40;;;-3.00;99.90;;;;;;4190338;28;20266;-60
2023/12/06 04:53:33;;;;;;;40.07;18.80;;;-3.00;99.90;;;;;;4192531;28;20265;-61
2023/12/06 04:55:34;;;;;;;35.23;18.07;;;-3.00;99.90;;;;;;4191228;28;20254;-60
2023/12/06 04:57:35;;;;;;;38.53;18.47;;;-3.00;99.90;;;;;;4192570;28;20265;-61
2023/12/06 04:59:36;;;;;;;40.63;18.23;;;-3.00;99.90;;;;;;4191906;28;20743;-61
2023/12/06 05:01:37;;;;;;;38.63;18.50;;;-3.10;99.90;;;;;;4192081;28;20273;-61
2023/12/06 05:03:38;;;;;;;38.00;19.43;;;-3.20;99.90;;;;;;4192736;28;20797;-61
2023/12/06 05:05:39;;;;;;;40.57;20.20;;;-3.30;99.90;;;;;;4191561;28;20265;-61
2023/12/06 05:07:41;;;;;;;42.37;20.93;;;-3.30;99.90;;;;;;4192849;28;20261;-60
2023/12/06 05:09:42;;;;;;;49.93;21.43;;;-3.30;99.90;;;;;;4191488;28;20815;-61
2023/12/06 05:11:43;;;;;;;51.60;21.27;;;-3.30;99.90;;;;;;4187052;28;20330;-60
2023/12/06 05:13:44;;;;;;;47.13;23.20;;;-3.30;99.90;;;;;;4191653;28;20338;-61
2023/12/06 05:15:46;;;;;;;41.70;21.10;;;-3.30;99.90;;;;;;4192109;28;20665;-61
2023/12/06 05:17:47;;;;;;;51.20;23.57;;;-3.30;99.90;;;;;;4190773;28;20277;-61
2023/12/06 05:19:48;;;;;;;51.10;24.17;;;-3.30;99.90;;;;;;4192777;28;20311;-61
2023/12/06 05:21:49;;;;;;;49.17;22.97;;;-3.30;99.90;;;;;;4190345;28;20327;-56
2023/12/06 05:23:50;;;;;;;59.07;26.17;;;-3.30;99.90;;;;;;4191377;28;20343;-61
2023/12/06 05:25:52;;;;;;;56.80;25.50;;;-3.40;99.90;;;;;;4190630;28;20334;-61
2023/12/06 05:27:53;;;;;;;51.10;24.60;;;-3.40;99.90;;;;;;4191185;28;20438;-62
2023/12/06 05:29:54;;;;;;;42.60;22.83;;;-3.50;99.90;;;;;;4190652;28;20323;-62
2023/12/06 05:31:55;;;;;;;44.20;22.57;;;-3.50;99.90;;;;;;4192011;28;20269;-58
2023/12/06 05:33:56;;;;;;;49.07;23.97;;;-3.50;99.90;;;;;;4191950;28;20311;-60
2023/12/06 05:35:59;;;;;;;43.83;22.47;;;-3.60;99.90;;;;;;4190058;28;20273;-60
2023/12/06 05:38:00;;;;;;;46.07;24.07;;;-3.60;99.90;;;;;;4191189;28;20278;-60
2023/12/06 05:40:03;;;;;;;45.10;22.77;;;-3.70;99.90;;;;;;4190455;28;20796;-61
2023/12/06 05:42:04;;;;;;;47.47;23.70;;;-3.70;99.90;;;;;;4192533;28;20307;-61
2023/12/06 05:44:06;;;;;;;47.23;24.50;;;-3.70;99.90;;;;;;4191400;28;20290;-61
2023/12/06 05:46:07;;;;;;;45.80;22.97;;;-3.70;99.90;;;;;;4192636;28;20265;-61
2023/12/06 05:48:08;;;;;;;46.90;22.90;;;-3.70;99.90;;;;;;4191564;28;20779;-61
2023/12/06 05:50:11;;;;;;;49.30;22.23;;;-3.70;99.90;;;;;;4192665;28;20261;-60
2023/12/06 05:52:12;;;;;;;43.47;21.03;;;-3.70;99.90;;;;;;4191232;28;20338;-61
2023/12/06 05:54:14;;;;;;;46.90;22.07;;;-3.70;99.90;;;;;;4192522;28;20281;-60
2023/12/06 05:56:15;;;;;;;42.10;21.20;;;-3.70;99.90;;;;;;4193367;28;20308;-61
2023/12/06 05:58:16;;;;;;;40.37;20.13;;;-3.70;99.90;;;;;;4195578;28;20258;-58
2023/12/06 06:00:18;;;;;;;44.73;20.97;;;-3.60;99.90;;;;;;4193897;28;20351;-60
2023/12/06 06:02:19;;;;;;;41.40;21.97;;;-3.60;99.90;;;;;;4194700;28;20331;-61
2023/12/06 06:04:20;;;;;;;54.73;26.37;;;-3.50;99.90;;;;;;4194758;28;20293;-60
2023/12/06 06:06:21;;;;;;;58.90;25.77;;;-3.50;99.90;;;;;;4193605;28;20693;-61
2023/12/06 06:08:23;;;;;;;57.60;24.97;;;-3.50;99.90;;;;;;4193111;28;20322;-61
2023/12/06 06:10:24;;;;;;;55.67;24.80;;;-3.50;99.90;;;;;;4186054;28;20280;-61
2023/12/06 06:12:25;;;;;;;55.90;24.97;;;-3.50;99.90;;;;;;4177313;28;20315;-61
2023/12/06 06:14:26;;;;;;;56.80;25.43;;;-3.50;99.90;;;;;;4191142;28;20423;-61
2023/12/06 06:16:27;;;;;;;56.93;26.03;;;-3.50;99.90;;;;;;4190581;28;20357;-58
2023/12/06 06:18:29;;;;;;;58.00;24.33;;;-3.50;99.90;;;;;;4187303;28;20270;-61
2023/12/06 06:20:30;;;;;;;59.90;26.80;;;-3.50;99.90;;;;;;4188914;28;20276;-61
2023/12/06 06:22:31;;;;;;;54.97;26.37;;;-3.40;99.90;;;;;;4204517;28;20273;-60
2023/12/06 06:24:32;;;;;;;60.53;28.30;;;-3.40;99.90;;;;;;4177370;28;20297;-61
2023/12/06 06:26:33;;;;;;;61.20;25.50;;;-3.30;99.90;;;;;;4177360;28;20335;-60
2023/12/06 06:28:34;;;;;;;56.00;26.03;;;-3.30;99.90;;;;;;4180159;28;20257;-59
2023/12/06 06:30:35;;;;;;;60.00;25.70;;;-3.30;99.90;;;;;;4186111;28;20261;-60
2023/12/06 06:32:37;;;;;;;61.40;28.20;;;-3.20;99.90;;;;;;4194036;28;22056;-60
2023/12/06 06:34:38;;;;;;;61.83;29.63;;;-3.20;99.90;;;;;;4184397;28;20431;-61
2023/12/06 06:36:39;;;;;;;68.33;28.60;;;-3.20;99.90;;;;;;4193664;28;20274;-61
2023/12/06 06:38:42;;;;;;;77.80;29.10;;;-3.20;99.90;;;;;;4176524;28;20336;-59
2023/12/06 06:40:43;;;;;;;61.20;26.73;;;-3.20;99.90;;;;;;4194044;28;20621;-60
2023/12/06 06:42:45;;;;;;;60.87;27.60;;;-3.20;99.90;;;;;;4194200;28;20717;-60
2023/12/06 06:44:51;;;;;;;63.90;27.40;;;-3.20;99.90;;;;;;4193473;28;20273;-60
2023/12/06 06:46:52;;;;;;;72.67;31.10;;;-3.30;99.90;;;;;;4194268;28;20330;-61
2023/12/06 06:48:53;;;;;;;66.67;27.83;;;-3.20;99.90;;;;;;4193372;28;20319;-58
2023/12/06 06:50:55;;;;;;;76.47;30.13;;;-3.20;99.90;;;;;;4195057;28;20761;-60
2023/12/06 06:52:58;;;;;;;78.33;31.43;;;-3.10;99.90;;;;;;4193068;28;20274;-61
2023/12/06 06:55:00;;;;;;;76.53;30.43;;;-3.00;99.90;;;;;;4195158;28;20281;-60
2023/12/06 06:57:01;;;;;;;76.93;32.80;;;-2.90;99.90;;;;;;4193064;28;20746;-60
2023/12/06 06:59:02;;;;;;;79.33;32.67;;;-2.80;99.90;;;;;;4193717;28;20289;-60
2023/12/06 07:01:05;;;;;;;67.97;29.43;;;-2.70;99.90;;;;;;4192728;28;20277;-60
2023/12/06 07:03:06;;;;;;;72.43;30.50;;;-2.70;99.90;;;;;;4194434;28;20293;-61
2023/12/06 07:05:12;;;;;;;74.47;31.53;;;-2.60;99.90;;;;;;4193963;28;20397;-60
2023/12/06 07:07:13;;;;;;;69.10;31.67;;;-2.60;99.90;;;;;;4192698;28;20261;-61
2023/12/06 07:09:14;;;;;;;69.27;30.00;;;-2.50;99.90;;;;;;4191187;28;20319;-60
2023/12/06 07:11:16;;;;;;;66.83;30.40;;;-2.40;99.90;;;;;;4193377;28;21138;-61
2023/12/06 07:13:17;;;;;;;73.07;30.40;;;-2.30;99.90;;;;;;4192658;28;20293;-60
2023/12/06 07:15:18;;;;;;;67.97;31.43;;;-2.30;99.90;;;;;;4192944;28;20347;-59
2023/12/06 07:17:19;;;;;;;60.57;29.33;;;-2.20;99.90;;;;;;4194770;28;20648;-57
2023/12/06 07:19:21;;;;;;;63.57;27.73;;;-2.10;99.90;;;;;;4192353;28;20277;-60
2023/12/06 07:21:23;;;;;;;61.70;28.03;;;-2.10;99.90;;;;;;4194045;28;20335;-59
2023/12/06 07:23:24;;;;;;;65.83;27.57;;;-2.10;99.90;;;;;;4203215;28;20296;-60
2023/12/06 07:25:25;;;;;;;64.67;27.47;;;-2.10;99.90;;;;;;4192967;28;20358;-59
2023/12/06 07:27:26;;;;;;;63.93;27.23;;;-2.10;99.90;;;;;;4173955;28;21090;-57
2023/12/06 07:29:28;;;;;;;60.73;26.17;;;-2.10;99.90;;;;;;4193265;28;20334;-61
2023/12/06 07:31:29;;;;;;;59.67;26.57;;;-2.00;99.90;;;;;;4192935;28;20281;-60
2023/12/06 07:33:31;;;;;;;65.23;28.57;;;-2.00;99.90;;;;;;4192261;28;20338;-61
2023/12/06 07:35:32;;;;;;;64.13;27.73;;;-1.90;99.90;;;;;;4193008;28;20294;-60
2023/12/06 07:37:34;;;;;;;79.83;29.60;;;-1.80;99.90;;;;;;4192961;28;20323;-60
2023/12/06 07:39:35;;;;;;;73.53;27.83;;;-1.70;99.90;;;;;;4192779;28;20335;-61
2023/12/06 07:41:36;;;;;;;58.87;25.07;;;-1.50;99.90;;;;;;4193452;28;20273;-60
2023/12/06 07:43:37;;;;;;;57.77;28.13;;;-1.40;99.90;;;;;;4193669;28;20285;-58
2023/12/06 07:45:39;;;;;;;63.70;28.50;;;-1.40;99.90;;;;;;4185784;28;20324;-60
2023/12/06 07:47:40;;;;;;;57.63;26.77;;;-1.30;99.90;;;;;;4191521;28;20273;-58
2023/12/06 07:49:41;;;;;;;62.33;29.37;;;-1.30;99.90;;;;;;4191829;28;20339;-61
2023/12/06 07:51:42;;;;;;;66.57;26.57;;;-1.20;99.90;;;;;;4194036;28;20273;-60
2023/12/06 07:53:44;;;;;;;57.53;27.27;;;-1.10;99.90;;;;;;4192179;28;20278;-57
2023/12/06 07:55:45;;;;;;;57.70;26.70;;;-1.00;99.90;;;;;;4193990;28;20749;-58
2023/12/06 07:57:46;;;;;;;61.20;27.50;;;-0.90;99.90;;;;;;4174340;28;20345;-60
2023/12/06 07:59:47;;;;;;;61.17;28.20;;;-0.80;99.90;;;;;;4193936;28;20277;-62
2023/12/06 08:01:49;;;;;;;62.77;28.13;;;-0.70;99.90;;;;;;4191685;28;20285;-62
2023/12/06 08:03:50;;;;;;;65.87;28.43;;;-0.60;99.90;;;;;;4191408;28;20716;-62
2023/12/06 08:05:52;;;;;;;61.87;28.10;;;-0.60;99.90;;;;;;4191790;28;20254;-58
2023/12/06 08:07:53;;;;;;;58.03;26.20;;;-0.60;99.90;;;;;;4192202;28;20727;-56
2023/12/06 08:09:55;;;;;;;65.00;28.50;;;-0.40;99.90;;;;;;4192297;28;20285;-60
2023/12/06 08:11:56;;;;;;;62.80;27.40;;;-0.40;99.90;;;;;;4192965;28;20402;-60
2023/12/06 08:13:58;;;;;;;62.20;26.60;;;-0.20;99.90;;;;;;4191581;28;20858;-61
2023/12/06 08:15:59;;;;;;;65.70;27.87;;;-0.10;99.90;;;;;;4191329;28;20703;-61
2023/12/06 08:18:01;;;;;;;59.97;26.60;;;0.10;99.90;;;;;;4193658;28;20323;-60
2023/12/06 08:20:05;;;;;;;62.93;27.80;;;0.10;99.90;;;;;;4191102;28;20262;-59
2023/12/06 08:22:06;;;;;;;55.40;26.27;;;0.20;99.90;;;;;;4193616;28;20274;-61
2023/12/06 08:24:07;;;;;;;60.17;26.37;;;0.30;99.90;;;;;;4191097;28;20297;-61
2023/12/06 08:26:10;;;;;;;57.40;26.70;;;0.40;99.90;;;;;;4175854;28;20278;-62
2023/12/06 08:28:11;;;;;;;65.87;27.93;;;0.50;99.90;;;;;;4192750;28;20365;-60
2023/12/06 08:30:13;;;;;;;65.20;28.40;;;0.40;99.90;;;;;;4192763;28;20277;-58
2023/12/06 08:32:14;;;;;;;63.57;31.50;;;0.40;99.90;;;;;;4191291;28;20265;-61
2023/12/06 08:34:15;;;;;;;62.23;30.13;;;0.40;99.90;;;;;;4192066;28;20599;-61
2023/12/06 08:36:16;;;;;;;76.00;31.97;;;0.30;99.90;;;;;;4190906;28;20265;-60
2023/12/06 08:38:17;;;;;;;59.60;29.73;;;0.20;99.90;;;;;;4194196;28;20409;-61
2023/12/06 08:40:19;;;;;;;67.07;29.77;;;0.10;99.90;;;;;;4193699;28;20265;-60
2023/12/06 08:42:20;;;;;;;60.90;28.30;;;0.10;99.90;;;;;;4192183;28;20311;-59
2023/12/06 08:44:21;;;;;;;71.10;30.53;;;0.00;99.90;;;;;;4191978;28;20327;-61
2023/12/06 08:46:23;;;;;;;50.53;24.50;;;0.00;99.90;;;;;;4191546;28;20311;-60
2023/12/06 08:48:24;;;;;;;51.80;22.53;;;0.00;99.90;;;;;;4192323;28;20262;-60
2023/12/06 08:50:25;;;;;;;55.87;23.70;;;0.00;99.90;;;;;;4190546;28;20335;-61
2023/12/06 08:52:26;;;;;;;60.90;24.30;;;0.10;99.90;;;;;;4193340;28;20270;-60
2023/12/06 08:54:27;;;;;;;58.00;24.13;;;0.10;99.90;;;;;;4190941;28;20285;-61
2023/12/06 08:56:29;;;;;;;57.07;23.00;;;0.10;99.90;;;;;;4192396;28;20288;-60
2023/12/06 08:58:30;;;;;;;57.97;22.90;;;0.20;99.90;;;;;;4191827;28;20351;-57
2023/12/06 09:00:32;;;;;;;46.47;22.20;;;0.30;99.90;;;;;;4192935;28;20330;-61
2023/12/06 09:02:37;;;;;;;53.50;22.93;;;0.40;99.90;;;;;;4192012;28;20828;-60
2023/12/06 09:04:38;;;;;;;52.97;20.83;;;0.50;99.90;;;;;;4191392;28;20301;-60
2023/12/06 09:06:39;;;;;;;41.77;21.50;;;0.60;99.90;;;;;;4184231;28;20273;-61
2023/12/06 09:08:40;;;;;;;40.00;19.57;;;0.70;99.90;;;;;;4192671;28;20274;-62
2023/12/06 09:10:41;;;;;;;38.27;19.03;;;0.90;99.90;;;;;;4191739;28;20253;-60
2023/12/06 09:12:42;;;;;;;37.90;18.63;;;1.10;99.90;;;;;;4191762;28;20257;-61
2023/12/06 09:14:44;;;;;;;37.53;18.10;;;1.20;99.90;;;;;;4190540;28;20652;-60
2023/12/06 09:16:45;;;;;;;38.60;18.27;;;1.30;99.90;;;;;;4191584;28;20315;-60
2023/12/06 09:18:46;;;;;;;38.13;17.43;;;1.40;99.90;;;;;;4192770;28;20687;-61
2023/12/06 09:20:47;;;;;;;34.53;18.57;;;1.50;99.90;;;;;;4191162;28;20757;-61
2023/12/06 09:22:49;;;;;;;36.07;18.10;;;1.60;99.90;;;;;;4192761;28;20725;-60
2023/12/06 09:24:50;;;;;;;34.23;17.67;;;1.80;99.90;;;;;;4191178;28;20301;-60
2023/12/06 09:26:51;;;;;;;32.27;17.70;;;1.90;99.90;;;;;;4192087;28;20806;-60
2023/12/06 09:28:52;;;;;;;31.47;15.40;;;2.00;99.90;;;;;;4191161;28;20266;-60
2023/12/06 09:30:53;;;;;;;35.37;16.37;;;2.00;99.90;;;;;;4192220;28;20265;-57
2023/12/06 09:32:55;;;;;;;31.70;15.50;;;2.00;99.90;;;;;;4194693;28;20261;-61
2023/12/06 09:34:56;;;;;;;30.50;16.03;;;2.10;99.90;;;;;;4194393;28;20262;-58
2023/12/06 09:36:57;;;;;;;30.40;15.30;;;2.30;99.90;;;;;;4194458;28;20326;-60
2023/12/06 09:39:00;;;;;;;30.80;15.23;;;2.40;99.90;;;;;;4195113;28;20253;-62
2023/12/06 09:41:03;;;;;;;30.83;14.67;;;2.50;99.90;;;;;;4180043;28;20307;-61
2023/12/06 09:43:05;;;;;;;33.20;15.63;;;2.60;99.90;;;;;;4195462;28;20638;-61
2023/12/06 09:45:07;;;;;;;30.07;14.77;;;2.80;99.90;;;;;;4194081;28;20300;-59
2023/12/06 09:47:08;;;;;;;33.67;15.23;;;2.90;99.90;;;;;;4193607;28;20270;-61
2023/12/06 09:49:10;;;;;;;29.33;14.17;;;2.90;99.90;;;;;;4194354;28;20368;-62
2023/12/06 09:51:11;;;;;;;32.37;15.37;;;2.90;99.90;;;;;;4193354;28;20281;-61
2023/12/06 09:53:12;;;;;;;33.00;14.53;;;2.80;99.90;;;;;;4194977;28;20619;-61
2023/12/06 09:55:13;;;;;;;27.63;15.83;;;2.90;99.90;;;;;;4194554;28;20643;-60
2023/12/06 09:57:16;;;;;;;31.07;14.30;;;3.00;99.90;;;;;;4196350;28;20749;-60
2023/12/06 09:59:18;;;;;;;30.97;15.63;;;3.10;99.90;;;;;;4194485;28;20266;-61
2023/12/06 10:01:19;;;;;;;26.10;14.00;;;3.20;99.90;;;;;;4195657;28;20763;-60
2023/12/06 10:03:23;;;;;;;30.73;15.00;;;3.30;99.90;;;;;;4193883;28;20261;-61
2023/12/06 10:05:24;;;;;;;28.93;15.13;;;3.40;99.90;;;;;;4190772;28;20298;-60
2023/12/06 10:07:33;;;;;;;27.10;14.43;;;3.50;99.90;;;;;;4185371;28;20270;-60
2023/12/06 10:09:34;;;;;;;21.63;12.57;;;3.60;99.90;;;;;;4194496;28;20330;-60
2023/12/06 10:11:36;;;;;;;23.47;12.73;;;3.70;99.90;;;;;;4193315;28;20379;-61
2023/12/06 10:13:39;;;;;;;24.37;12.27;;;3.80;99.90;;;;;;4194731;28;20675;-59
2023/12/06 10:15:42;;;;;;;24.90;13.23;;;3.80;99.90;;;;;;4193109;28;20277;-60
2023/12/06 10:17:44;;;;;;;25.83;13.70;;;3.90;99.90;;;;;;4195019;28;20257;-58